Time;durP1;ratioP1;P1;durP2;ratioP2;P2;SDS_P1;SDS_P2;PMS_P1;PMS_P2;Temp;Humidity;BMP_temperature;BMP_pressure;BME280_temperature;BME280_humidity;BME280_pressure;Samples;Min_cycle;Max_cycle;Signal;HPM_P1;HPM_P2
2022/10/08 00:02:19;;;;;;;7.77;3.10;;;17.40;70.50;;;;;;5057592;23;20239;-96
2022/10/08 00:07:34;;;;;;;10.37;3.40;;;17.30;72.10;;;;;;5011676;28;20215;-96
2022/10/08 00:10:05;;;;;;;10.20;3.63;;;17.30;71.40;;;;;;5016751;28;20204;-95
2022/10/08 00:12:33;;;;;;;17.73;4.50;;;17.30;72.10;;;;;;5016536;28;20211;-96
2022/10/08 00:15:12;;;;;;;10.97;3.03;;;17.30;72.60;;;;;;5015114;28;20242;-95
2022/10/08 00:17:43;;;;;;;14.60;3.87;;;17.30;73.60;;;;;;5018559;28;20205;-95
2022/10/08 00:20:11;;;;;;;8.10;3.07;;;17.20;72.60;;;;;;5027443;28;20215;-94
2022/10/08 00:22:46;;;;;;;8.27;3.07;;;17.20;73.00;;;;;;5023965;28;20231;-95
2022/10/08 00:25:16;;;;;;;14.30;3.37;;;17.30;73.70;;;;;;5021703;28;20253;-95
2022/10/08 00:27:44;;;;;;;9.17;3.23;;;17.30;73.80;;;;;;5019836;28;20283;-94
2022/10/08 00:30:27;;;;;;;7.57;2.20;;;17.30;73.70;;;;;;5019627;28;20209;-95
2022/10/08 00:32:55;;;;;;;10.87;3.63;;;17.30;75.40;;;;;;5017309;28;20212;-95
2022/10/08 00:38:10;;;;;;;11.80;3.10;;;17.30;75.30;;;;;;5012287;28;20211;-95
2022/10/08 00:40:45;;;;;;;14.90;4.43;;;17.30;74.70;;;;;;5005579;28;20212;-94
2022/10/08 00:43:15;;;;;;;8.63;3.27;;;17.30;76.20;;;;;;5012468;28;20207;-96
2022/10/08 00:45:51;;;;;;;12.00;3.60;;;17.30;75.60;;;;;;5023082;28;20211;-96
2022/10/08 00:48:33;;;;;;;11.07;3.80;;;17.30;76.70;;;;;;5019213;28;20228;-96
2022/10/08 00:51:19;;;;;;;9.00;3.27;;;17.30;76.30;;;;;;5000077;28;20717;-96
2022/10/08 00:53:53;;;;;;;8.33;3.33;;;17.30;76.80;;;;;;5007120;28;20231;-96
2022/10/08 00:56:26;;;;;;;8.53;3.07;;;17.30;76.80;;;;;;4998630;28;20209;-96
2022/10/08 00:58:55;;;;;;;7.20;2.87;;;17.30;77.00;;;;;;4998261;28;20212;-96
2022/10/08 01:01:42;;;;;;;9.40;3.00;;;17.30;76.40;;;;;;4997591;28;20237;-95
2022/10/08 01:07:02;;;;;;;13.43;4.20;;;17.30;76.90;;;;;;4986088;28;20235;-96
2022/10/08 01:09:33;;;;;;;7.40;2.87;;;17.40;76.90;;;;;;5000595;28;20209;-96
2022/10/08 01:12:11;;;;;;;11.13;4.00;;;17.40;76.90;;;;;;4998910;28;20260;-96
2022/10/08 01:14:46;;;;;;;15.17;4.50;;;17.40;77.60;;;;;;4997484;28;20585;-96
2022/10/08 01:17:33;;;;;;;12.00;4.17;;;17.40;77.50;;;;;;4995528;28;20223;-96
2022/10/08 01:20:38;;;;;;;7.70;2.70;;;17.40;78.20;;;;;;4982559;28;20213;-96
2022/10/08 01:23:29;;;;;;;10.63;3.30;;;17.40;77.80;;;;;;4986732;28;20297;-96
2022/10/08 01:26:07;;;;;;;7.83;2.83;;;17.40;78.10;;;;;;4997930;28;20206;-96
2022/10/08 01:28:43;;;;;;;9.30;3.13;;;17.40;77.10;;;;;;4998900;28;20274;-96
2022/10/08 01:31:17;;;;;;;9.77;3.50;;;17.50;78.00;;;;;;4998215;28;20201;-96
2022/10/08 01:33:57;;;;;;;10.27;3.50;;;17.50;77.80;;;;;;4999332;28;20729;-96
2022/10/08 01:36:27;;;;;;;9.73;3.40;;;17.50;78.00;;;;;;4994195;28;20594;-96
2022/10/08 01:39:01;;;;;;;8.87;3.13;;;17.50;77.30;;;;;;4977958;28;20210;-96
2022/10/08 01:41:44;;;;;;;6.90;2.67;;;17.50;78.00;;;;;;4984529;28;20260;-96
2022/10/08 01:44:22;;;;;;;11.30;3.87;;;17.50;78.00;;;;;;5000042;28;20269;-96
2022/10/08 01:47:00;;;;;;;9.17;3.10;;;17.50;77.70;;;;;;4998390;28;20213;-96
2022/10/08 01:49:34;;;;;;;11.50;4.03;;;17.50;78.00;;;;;;4978966;28;20242;-96
2022/10/08 01:52:08;;;;;;;10.03;3.57;;;17.50;77.80;;;;;;5010405;28;20244;-96
2022/10/08 01:57:34;;;;;;;10.63;3.90;;;17.50;78.00;;;;;;4998551;28;20218;-96
2022/10/08 02:03:07;;;;;;;9.00;3.07;;;17.40;77.40;;;;;;4975063;28;20246;-96
2022/10/08 02:05:49;;;;;;;13.77;4.17;;;17.50;77.10;;;;;;4983415;28;20217;-96
2022/10/08 02:08:17;;;;;;;7.93;2.70;;;17.40;77.90;;;;;;4998131;28;20213;-96
2022/10/08 02:10:46;;;;;;;12.93;4.17;;;17.40;77.10;;;;;;4996605;28;20224;-95
2022/10/08 02:13:14;;;;;;;14.00;4.47;;;17.40;77.40;;;;;;4998990;28;20317;-96
2022/10/08 02:15:49;;;;;;;14.33;4.40;;;17.40;77.70;;;;;;4999207;28;20215;-96
2022/10/08 02:18:27;;;;;;;15.37;3.97;;;17.40;78.10;;;;;;4993840;28;20236;-96
2022/10/08 02:23:44;;;;;;;11.87;3.70;;;17.40;77.70;;;;;;4970915;28;20213;-96
2022/10/08 02:26:17;;;;;;;8.20;3.17;;;17.40;77.30;;;;;;4997785;28;20209;-96
2022/10/08 02:28:50;;;;;;;12.73;3.43;;;17.40;77.50;;;;;;5009631;28;20213;-96
2022/10/08 02:31:24;;;;;;;10.00;3.57;;;17.40;77.20;;;;;;5010824;28;20749;-96
2022/10/08 02:34:04;;;;;;;10.17;3.13;;;17.40;77.00;;;;;;5013735;28;20218;-96
2022/10/08 02:36:35;;;;;;;11.53;3.80;;;17.40;77.00;;;;;;5036757;23;20272;-96
2022/10/08 02:39:12;;;;;;;7.00;2.83;;;17.30;76.10;;;;;;5016456;28;20208;-96
2022/10/08 02:44:39;;;;;;;9.50;2.70;;;17.40;76.10;;;;;;5024033;23;20239;-96
2022/10/08 02:47:12;;;;;;;8.73;2.87;;;17.30;75.70;;;;;;5016111;28;20211;-96
2022/10/08 02:49:49;;;;;;;7.60;2.60;;;17.30;75.40;;;;;;5016778;28;20208;-96
2022/10/08 02:52:20;;;;;;;12.50;4.37;;;17.30;75.40;;;;;;5014920;28;20235;-96
2022/10/08 02:54:52;;;;;;;7.50;2.73;;;17.30;74.90;;;;;;4997421;28;20229;-96
2022/10/08 02:59:51;;;;;;;8.90;2.80;;;17.20;74.00;;;;;;4988535;28;20217;-96
2022/10/08 03:02:24;;;;;;;8.90;2.90;;;17.20;74.70;;;;;;4989965;28;20287;-96
2022/10/08 03:05:03;;;;;;;11.53;3.20;;;17.20;74.40;;;;;;4981160;28;20209;-96
2022/10/08 03:07:36;;;;;;;11.50;3.67;;;17.10;74.50;;;;;;4987271;28;20208;-94
2022/10/08 03:10:06;;;;;;;14.17;4.40;;;17.10;74.30;;;;;;4986430;28;20203;-96
2022/10/08 03:12:41;;;;;;;10.07;3.27;;;17.10;73.90;;;;;;4974728;28;20489;-96
2022/10/08 03:15:11;;;;;;;11.13;3.33;;;17.10;73.90;;;;;;4972703;28;20213;-96
2022/10/08 03:17:46;;;;;;;8.30;2.50;;;17.10;73.80;;;;;;4975869;28;20291;-96
2022/10/08 03:20:22;;;;;;;5.70;2.30;;;17.00;73.80;;;;;;4975591;28;20213;-96
2022/10/08 03:22:50;;;;;;;10.13;3.03;;;17.00;73.60;;;;;;4975543;28;20236;-96
2022/10/08 03:25:18;;;;;;;11.90;3.80;;;17.00;73.40;;;;;;4975243;28;20217;-96
2022/10/08 03:27:45;;;;;;;14.13;4.70;;;16.90;73.20;;;;;;4982378;28;20658;-96
2022/10/08 03:30:19;;;;;;;13.83;3.83;;;16.90;73.20;;;;;;4987128;28;20236;-94
2022/10/08 03:32:46;;;;;;;9.23;3.37;;;16.80;73.50;;;;;;4984348;28;20269;-96
2022/10/08 03:35:20;;;;;;;9.63;3.80;;;16.80;73.30;;;;;;4976567;28;20216;-95
2022/10/08 03:37:53;;;;;;;8.07;2.93;;;16.80;73.60;;;;;;4960109;28;20332;-95
2022/10/08 03:40:28;;;;;;;12.50;3.80;;;16.70;73.40;;;;;;4958595;29;20219;-96
2022/10/08 03:42:56;;;;;;;9.33;3.20;;;16.70;73.80;;;;;;4975904;28;20228;-96
2022/10/08 03:45:24;;;;;;;7.93;2.73;;;16.70;73.60;;;;;;4978697;28;20271;-96
2022/10/08 03:47:55;;;;;;;10.27;3.17;;;16.60;73.80;;;;;;4977996;28;20640;-96
2022/10/08 03:52:54;;;;;;;7.60;2.90;;;16.60;73.70;;;;;;5001200;23;20616;-96
2022/10/08 03:55:32;;;;;;;15.63;4.47;;;16.50;74.30;;;;;;5001923;28;20211;-96
2022/10/08 03:58:02;;;;;;;10.47;3.03;;;16.50;74.40;;;;;;4983177;28;20239;-96
2022/10/08 04:00:30;;;;;;;13.03;3.87;;;16.40;74.20;;;;;;4979494;28;20207;-96
2022/10/08 04:02:59;;;;;;;11.27;3.57;;;16.40;73.80;;;;;;4983918;28;20220;-96
2022/10/08 04:05:27;;;;;;;10.00;3.50;;;16.40;74.20;;;;;;4984313;28;20267;-96
2022/10/08 04:08:00;;;;;;;8.77;3.23;;;16.30;74.40;;;;;;4981935;28;20220;-96
2022/10/08 04:10:29;;;;;;;12.97;4.10;;;16.30;75.00;;;;;;4980235;28;20222;-96
2022/10/08 04:12:56;;;;;;;11.47;3.67;;;16.30;75.00;;;;;;4981908;28;20671;-96
2022/10/08 04:15:32;;;;;;;9.90;2.87;;;16.30;75.20;;;;;;4978418;28;20266;-96
2022/10/08 04:18:01;;;;;;;8.30;3.07;;;16.20;75.60;;;;;;4965061;29;20208;-96
2022/10/08 04:23:24;;;;;;;11.70;4.17;;;16.20;75.70;;;;;;5039306;23;20302;-96
2022/10/08 04:25:52;;;;;;;7.23;3.00;;;16.20;75.20;;;;;;5027687;23;20297;-96
2022/10/08 04:30:58;;;;;;;11.20;3.97;;;16.10;75.60;;;;;;5024333;23;20227;-96
2022/10/08 04:33:26;;;;;;;12.47;3.33;;;16.10;75.40;;;;;;5020215;28;20275;-96
2022/10/08 04:38:42;;;;;;;9.43;3.07;;;16.10;75.10;;;;;;5034843;23;20244;-96
2022/10/08 04:41:14;;;;;;;10.20;3.43;;;16.10;75.10;;;;;;5002435;28;20239;-96
2022/10/08 04:43:42;;;;;;;14.37;4.07;;;16.10;75.00;;;;;;5009606;28;20279;-95
2022/10/08 04:46:14;;;;;;;10.47;3.47;;;16.00;74.70;;;;;;5022839;28;20217;-96
2022/10/08 04:48:46;;;;;;;13.53;3.97;;;16.00;75.10;;;;;;5025044;28;20200;-95
2022/10/08 04:51:13;;;;;;;31.73;9.90;;;16.00;75.10;;;;;;5129998;23;20214;-96
2022/10/08 04:53:47;;;;;;;9.80;3.13;;;16.00;74.90;;;;;;5019767;28;20227;-96
2022/10/08 04:56:16;;;;;;;11.23;4.07;;;16.00;75.70;;;;;;5016656;28;20217;-96
2022/10/08 05:01:28;;;;;;;12.03;3.90;;;15.90;75.60;;;;;;5028284;28;20240;-96
2022/10/08 05:07:23;;;;;;;8.50;3.00;;;15.90;76.70;;;;;;5026501;28;20183;-96
2022/10/08 05:09:53;;;;;;;8.63;2.80;;;15.80;75.70;;;;;;5024887;28;20217;-96
2022/10/08 05:12:23;;;;;;;9.87;3.17;;;15.80;75.70;;;;;;5021129;28;20203;-96
2022/10/08 05:14:56;;;;;;;11.00;3.43;;;15.80;75.80;;;;;;5022653;28;20202;-96
2022/10/08 05:17:25;;;;;;;6.73;2.33;;;15.70;76.00;;;;;;5020346;28;20202;-96
2022/10/08 05:22:42;;;;;;;8.77;2.90;;;15.70;75.30;;;;;;5020057;23;20672;-96
2022/10/08 05:25:17;;;;;;;7.90;3.00;;;15.70;75.90;;;;;;5021026;28;20214;-96
2022/10/08 05:30:37;;;;;;;6.37;2.23;;;15.60;75.50;;;;;;5028716;28;20236;-96
2022/10/08 05:33:12;;;;;;;6.03;1.80;;;15.60;76.00;;;;;;5038164;28;20181;-96
2022/10/08 05:45:24;;;;;;;8.17;2.23;;;15.50;76.70;;;;;;5036865;28;20199;-96
2022/10/08 05:47:51;;;;;;;8.50;3.10;;;15.50;76.10;;;;;;5013233;28;20248;-94
2022/10/08 05:50:19;;;;;;;9.90;2.97;;;15.50;75.80;;;;;;5014759;28;20236;-95
2022/10/08 05:52:50;;;;;;;6.00;1.93;;;15.50;75.80;;;;;;5014425;28;20222;-94
2022/10/08 05:55:17;;;;;;;11.63;3.27;;;15.40;76.30;;;;;;5015639;28;20904;-94
2022/10/08 05:57:45;;;;;;;13.57;3.97;;;15.40;75.70;;;;;;5014608;28;20226;-94
2022/10/08 06:02:56;;;;;;;7.63;2.40;;;15.40;75.50;;;;;;5005182;28;20233;-95
2022/10/08 06:05:25;;;;;;;16.87;4.13;;;15.40;75.40;;;;;;4996942;28;20206;-94
2022/10/08 06:07:56;;;;;;;11.50;3.30;;;15.40;75.20;;;;;;5009640;28;20213;-94
2022/10/08 06:10:25;;;;;;;7.73;2.43;;;15.40;75.10;;;;;;5016743;28;20205;-95
2022/10/08 06:13:07;;;;;;;7.10;2.27;;;15.40;75.20;;;;;;5016019;28;20617;-96
2022/10/08 06:18:26;;;;;;;25.90;7.50;;;15.30;75.60;;;;;;5030489;23;20213;-93
2022/10/08 06:20:54;;;;;;;8.93;2.60;;;15.30;75.30;;;;;;5002471;28;20213;-95
2022/10/08 06:23:23;;;;;;;6.33;1.90;;;15.30;75.00;;;;;;4995853;28;20218;-95
2022/10/08 06:25:52;;;;;;;10.23;2.60;;;15.30;75.10;;;;;;4991373;28;20282;-95
2022/10/08 06:31:16;;;;;;;11.73;3.57;;;15.30;75.50;;;;;;5032874;23;20242;-93
2022/10/08 06:33:45;;;;;;;8.00;2.57;;;15.20;75.00;;;;;;5000900;28;21159;-96
2022/10/08 06:36:21;;;;;;;10.10;3.10;;;15.20;74.70;;;;;;4998593;28;20206;-96
2022/10/08 06:38:56;;;;;;;9.63;2.77;;;15.20;74.90;;;;;;4996882;28;20214;-96
2022/10/08 06:41:23;;;;;;;9.40;2.90;;;15.20;74.90;;;;;;4996984;28;20206;-95
2022/10/08 06:43:53;;;;;;;11.03;2.87;;;15.20;74.80;;;;;;4992600;28;20250;-94
2022/10/08 06:46:42;;;;;;;19.67;4.33;;;15.10;75.00;;;;;;4993058;28;20220;-94
2022/10/08 06:49:12;;;;;;;10.63;3.10;;;15.10;75.30;;;;;;4992615;28;20218;-92
2022/10/08 06:51:55;;;;;;;7.97;1.77;;;15.10;74.50;;;;;;4992762;28;20698;-94
2022/10/08 06:54:26;;;;;;;7.87;2.23;;;15.10;74.70;;;;;;4990759;28;20250;-94
2022/10/08 06:56:54;;;;;;;8.73;2.00;;;15.10;74.50;;;;;;4986180;28;20209;-95
2022/10/08 06:59:22;;;;;;;10.17;2.03;;;15.10;74.50;;;;;;4992702;28;20209;-96
2022/10/08 07:04:37;;;;;;;8.50;2.70;;;15.00;74.40;;;;;;5002304;23;20303;-95
2022/10/08 07:07:05;;;;;;;19.77;5.10;;;15.00;74.40;;;;;;4989978;28;20212;-95
2022/10/08 07:12:14;;;;;;;23.67;6.40;;;15.00;75.00;;;;;;5003503;23;20246;-94
2022/10/08 07:14:42;;;;;;;7.03;2.33;;;15.00;75.00;;;;;;4999907;28;20923;-94
2022/10/08 07:17:17;;;;;;;11.10;3.90;;;15.00;74.90;;;;;;5000462;28;20663;-93
2022/10/08 07:20:37;;;;;;;8.60;2.73;;;15.00;74.70;;;;;;4995876;28;20204;-93
2022/10/08 07:23:12;;;;;;;7.77;2.03;;;15.10;74.60;;;;;;4957838;28;20230;-95
2022/10/08 07:25:41;;;;;;;17.43;4.47;;;15.10;74.60;;;;;;5003538;28;20826;-94
2022/10/08 07:28:10;;;;;;;14.97;4.00;;;15.10;74.60;;;;;;4997941;28;20210;-92
2022/10/08 07:30:40;;;;;;;21.47;5.03;;;15.10;74.10;;;;;;4998396;28;20877;-94
2022/10/08 07:33:07;;;;;;;9.03;2.80;;;15.10;73.60;;;;;;5001400;28;20605;-95
2022/10/08 07:35:34;;;;;;;10.40;3.67;;;15.10;74.00;;;;;;5004928;28;20210;-94
2022/10/08 07:38:11;;;;;;;9.40;3.17;;;15.20;74.20;;;;;;5007159;28;20617;-95
2022/10/08 07:40:41;;;;;;;15.07;3.63;;;15.20;74.40;;;;;;4992773;28;20259;-94
2022/10/08 07:43:12;;;;;;;14.60;3.97;;;15.20;74.20;;;;;;5000260;28;20251;-96
2022/10/08 07:45:45;;;;;;;9.93;2.40;;;15.20;73.90;;;;;;5001013;28;20199;-94
2022/10/08 07:48:32;;;;;;;14.40;3.57;;;15.30;73.60;;;;;;5003178;28;20207;-94
2022/10/08 07:51:06;;;;;;;5.93;1.77;;;15.30;73.20;;;;;;4986541;28;20321;-96
2022/10/08 07:53:41;;;;;;;15.77;4.17;;;15.30;73.30;;;;;;4994956;28;20204;-95
2022/10/08 07:56:12;;;;;;;6.57;2.13;;;15.40;73.30;;;;;;4996940;28;20241;-96
2022/10/08 07:59:20;;;;;;;39.47;11.87;;;15.40;73.80;;;;;;5032049;23;20222;-96
2022/10/08 08:01:49;;;;;;;8.87;2.67;;;15.50;74.00;;;;;;4986668;28;20969;-96
2022/10/08 08:04:17;;;;;;;7.83;2.67;;;15.60;74.20;;;;;;4997532;28;20225;-95
2022/10/08 08:07:31;;;;;;;7.97;1.93;;;15.60;74.00;;;;;;4989523;28;20210;-96
2022/10/08 08:10:09;;;;;;;15.23;4.17;;;15.70;73.80;;;;;;4980181;28;20559;-95
2022/10/08 08:13:03;;;;;;;18.47;2.83;;;15.90;73.60;;;;;;4993939;28;20212;-96
2022/10/08 08:15:30;;;;;;;17.80;4.50;;;16.10;73.90;;;;;;4990806;28;20701;-95
2022/10/08 08:17:57;;;;;;;15.10;3.67;;;16.30;73.00;;;;;;4991259;28;20294;-96
2022/10/08 08:26:53;;;;;;;13.10;3.20;;;16.60;69.60;;;;;;4970498;28;20728;-96
2022/10/08 08:29:22;;;;;;;8.77;2.33;;;16.80;70.40;;;;;;4991089;28;20224;-96
2022/10/08 08:32:08;;;;;;;9.60;2.93;;;16.90;70.00;;;;;;4995189;28;20521;-96
2022/10/08 08:34:37;;;;;;;9.77;3.33;;;17.00;69.30;;;;;;4993582;28;20202;-95
2022/10/08 08:37:04;;;;;;;9.80;1.73;;;17.00;69.20;;;;;;4996673;28;20213;-96
2022/10/08 08:39:45;;;;;;;7.97;2.50;;;17.10;70.00;;;;;;4996028;28;20228;-96
2022/10/08 08:42:49;;;;;;;10.20;3.17;;;17.20;69.80;;;;;;4995824;28;20209;-96
2022/10/08 08:48:31;;;;;;;6.23;2.23;;;17.40;68.00;;;;;;4992495;28;20208;-96
2022/10/08 08:51:25;;;;;;;10.30;3.10;;;17.50;68.60;;;;;;4986981;28;20313;-95
2022/10/08 08:54:07;;;;;;;11.60;3.17;;;17.50;67.20;;;;;;4995390;28;20248;-93
2022/10/08 08:56:35;;;;;;;9.80;2.27;;;17.60;67.70;;;;;;4989318;28;20238;-96
2022/10/08 08:59:13;;;;;;;6.83;2.37;;;17.60;67.70;;;;;;4995243;28;20233;-96
2022/10/08 09:04:34;;;;;;;11.70;3.60;;;17.80;68.20;;;;;;4996266;28;20233;-90
2022/10/08 09:07:07;;;;;;;7.97;2.23;;;17.90;67.10;;;;;;5013642;28;20218;-96
2022/10/08 09:12:30;;;;;;;14.17;4.57;;;18.30;67.70;;;;;;5005087;28;20210;-96
2022/10/08 09:15:02;;;;;;;10.10;2.73;;;18.50;68.20;;;;;;5003320;28;20210;-96
2022/10/08 09:20:30;;;;;;;8.30;2.00;;;19.00;66.30;;;;;;4995345;28;20233;-96
2022/10/08 09:23:00;;;;;;;12.30;2.80;;;19.10;65.70;;;;;;4994888;28;20209;-95
2022/10/08 09:25:32;;;;;;;6.93;1.47;;;19.40;65.90;;;;;;4999170;28;20695;-96
2022/10/08 09:28:03;;;;;;;9.37;2.20;;;19.50;65.40;;;;;;4995900;28;20625;-96
2022/10/08 09:31:09;;;;;;;8.50;1.60;;;19.60;65.10;;;;;;4997244;28;20233;-96
2022/10/08 09:37:06;;;;;;;6.97;1.73;;;19.80;60.80;;;;;;4993790;28;20213;-96
2022/10/08 09:39:35;;;;;;;12.50;4.33;;;20.00;61.80;;;;;;4992276;28;20201;-96
2022/10/08 09:42:14;;;;;;;6.70;2.60;;;20.00;62.20;;;;;;4998693;28;20217;-96
2022/10/08 09:44:47;;;;;;;8.20;2.27;;;20.00;62.20;;;;;;5001550;28;20294;-94
2022/10/08 09:47:19;;;;;;;8.07;3.33;;;20.10;62.70;;;;;;5001495;28;20264;-95
2022/10/08 09:50:07;;;;;;;9.47;2.90;;;20.10;61.80;;;;;;5000364;28;20207;-96
2022/10/08 09:52:41;;;;;;;12.80;3.20;;;20.30;59.30;;;;;;4996756;28;20212;-96
2022/10/08 09:55:22;;;;;;;5.43;2.07;;;20.40;59.80;;;;;;4999554;28;20201;-94
2022/10/08 09:58:17;;;;;;;5.73;1.93;;;20.50;59.80;;;;;;4988802;28;20225;-96
2022/10/08 10:00:45;;;;;;;7.90;2.70;;;20.60;61.00;;;;;;4997848;28;20216;-96
2022/10/08 10:03:19;;;;;;;6.53;1.90;;;20.70;60.70;;;;;;4989317;28;20229;-96
2022/10/08 10:22:53;;;;;;;6.97;2.33;;;21.50;57.30;;;;;;5031196;28;20225;-96
2022/10/08 10:29:34;;;;;;;13.03;3.73;;;21.70;57.00;;;;;;5007355;28;20328;-96
2022/10/08 10:35:02;;;;;;;12.17;4.13;;;21.70;58.10;;;;;;5019584;28;20205;-96
2022/10/08 10:41:11;;;;;;;9.97;3.87;;;21.70;56.40;;;;;;5021847;28;20201;-96
2022/10/08 10:43:47;;;;;;;11.40;4.23;;;21.60;56.30;;;;;;5006742;28;20202;-96
2022/10/08 10:46:40;;;;;;;7.00;2.30;;;21.50;56.20;;;;;;5018092;28;20209;-96
2022/10/08 10:49:41;;;;;;;13.63;4.33;;;21.40;56.10;;;;;;5018029;28;20302;-96
2022/10/08 10:52:56;;;;;;;5.60;1.97;;;21.20;55.80;;;;;;5026685;28;20203;-96
2022/10/08 10:55:39;;;;;;;13.63;4.07;;;21.20;57.10;;;;;;4971539;28;20207;-96
2022/10/08 11:01:46;;;;;;;11.33;2.43;;;21.10;56.70;;;;;;5018726;28;20209;-96
2022/10/08 11:07:46;;;;;;;7.63;2.57;;;21.10;56.40;;;;;;5023907;28;20236;-96
2022/10/08 11:14:04;;;;;;;8.40;2.43;;;21.20;56.40;;;;;;5027311;28;20196;-96
2022/10/08 11:17:16;;;;;;;8.93;2.50;;;21.30;57.40;;;;;;5030925;28;20578;-96
2022/10/08 11:23:03;;;;;;;7.27;2.20;;;21.50;56.80;;;;;;5763864;23;20238;-96
2022/10/08 11:25:44;;;;;;;12.13;3.63;;;21.60;56.20;;;;;;5028470;28;20235;-96
2022/10/08 11:28:29;;;;;;;10.87;3.60;;;21.70;55.50;;;;;;5017976;28;20216;-94
2022/10/08 11:31:24;;;;;;;8.00;2.10;;;21.70;55.50;;;;;;5021064;28;20566;-96
2022/10/08 11:33:56;;;;;;;8.20;2.60;;;21.90;55.30;;;;;;5016656;28;20273;-92
2022/10/08 11:36:39;;;;;;;9.30;3.23;;;21.90;55.00;;;;;;5024246;28;20299;-96
2022/10/08 11:45:49;;;;;;;6.73;1.53;;;22.00;55.10;;;;;;4951988;28;20686;-93
2022/10/08 11:48:51;;;;;;;10.07;2.33;;;22.00;55.00;;;;;;5030140;28;20208;-96
2022/10/08 12:26:11;;;;;;;6.97;2.40;;;22.40;53.10;;;;;;5013449;28;20225;-96
2022/10/08 12:33:07;;;;;;;6.23;1.93;;;22.50;53.70;;;;;;4982726;28;20268;-96
2022/10/08 12:36:16;;;;;;;5.60;1.77;;;22.60;52.80;;;;;;5006097;28;20232;-96
2022/10/08 12:42:30;;;;;;;7.00;2.43;;;22.70;53.00;;;;;;5028337;28;20191;-96
2022/10/08 12:45:32;;;;;;;10.43;3.70;;;22.70;52.70;;;;;;5014280;28;20221;-96
2022/10/08 12:48:22;;;;;;;10.33;3.83;;;22.80;51.90;;;;;;5007000;28;20219;-96
2022/10/08 12:51:11;;;;;;;10.80;3.40;;;22.90;52.30;;;;;;5014454;28;20264;-96
2022/10/08 13:03:07;;;;;;;7.50;2.43;;;23.10;52.10;;;;;;5014395;28;20198;-96
2022/10/08 13:11:39;;;;;;;7.67;2.10;;;23.40;52.50;;;;;;5001164;28;20265;-96
2022/10/08 13:14:25;;;;;;;11.93;2.90;;;23.50;51.70;;;;;;5022938;28;20182;-96
2022/10/08 13:20:58;;;;;;;4.10;1.83;;;23.60;51.10;;;;;;5034731;28;20217;-96
2022/10/08 13:36:48;;;;;;;4.07;1.40;;;24.20;50.50;;;;;;5019898;28;20193;-96
2022/10/08 13:45:25;;;;;;;7.03;2.03;;;24.10;50.40;;;;;;5032695;28;20273;-96
2022/10/08 14:00:06;;;;;;;8.07;2.67;;;23.60;50.90;;;;;;5290666;23;20241;-96
2022/10/08 14:05:44;;;;;;;6.70;2.40;;;23.40;49.00;;;;;;5552612;23;20289;-96
2022/10/08 14:11:11;;;;;;;4.87;2.00;;;23.10;49.10;;;;;;5295725;23;20245;-96
2022/10/08 14:17:19;;;;;;;6.07;2.23;;;22.80;49.20;;;;;;5001633;28;20218;-96
2022/10/08 14:22:16;;;;;;;16.73;6.60;;;22.50;49.90;;;;;;5276578;23;20233;-96
2022/10/08 14:46:34;;;;;;;6.03;1.60;;;21.50;51.10;;;;;;5010594;28;20260;-96
2022/10/08 14:49:04;;;;;;;6.33;2.07;;;21.40;50.90;;;;;;4993743;28;20232;-96
2022/10/08 14:54:47;;;;;;;9.40;2.30;;;21.20;51.30;;;;;;4920150;28;20211;-96
2022/10/08 14:57:42;;;;;;;11.83;2.80;;;21.10;51.10;;;;;;4976434;28;20191;-96
2022/10/08 15:10:18;;;;;;;7.47;2.00;;;20.70;51.50;;;;;;5524011;23;20307;-96
2022/10/08 15:22:19;;;;;;;7.10;2.17;;;20.50;52.00;;;;;;5245281;23;20262;-96
2022/10/08 15:24:48;;;;;;;10.13;3.03;;;20.40;51.80;;;;;;5037052;28;20201;-94
2022/10/08 15:27:17;;;;;;;9.80;3.37;;;20.40;52.00;;;;;;5030579;28;20204;-95
2022/10/08 15:29:44;;;;;;;8.87;4.20;;;20.40;52.10;;;;;;5021343;28;20637;-93
2022/10/08 15:35:16;;;;;;;10.93;4.27;;;20.30;52.30;;;;;;5009544;28;20209;-92
2022/10/08 15:37:49;;;;;;;9.83;3.57;;;20.20;52.50;;;;;;5018444;28;20575;-94
2022/10/08 15:40:16;;;;;;;13.90;4.87;;;20.20;52.50;;;;;;5028615;23;20722;-94
2022/10/08 15:42:44;;;;;;;14.50;4.77;;;20.20;52.70;;;;;;5027467;28;20620;-94
2022/10/08 15:47:56;;;;;;;12.97;4.63;;;20.10;52.60;;;;;;5019358;28;20255;-94
2022/10/08 15:50:24;;;;;;;12.27;3.20;;;20.00;52.60;;;;;;5007576;28;20228;-93
2022/10/08 15:52:51;;;;;;;10.03;3.70;;;20.00;52.60;;;;;;5020548;28;20212;-93
2022/10/08 15:55:19;;;;;;;12.93;4.57;;;20.00;52.80;;;;;;5016119;28;20228;-93
2022/10/08 15:57:47;;;;;;;16.17;4.93;;;19.90;52.90;;;;;;5014508;28;20212;-91
2022/10/08 16:00:16;;;;;;;13.07;4.30;;;19.90;53.10;;;;;;5017970;28;20263;-94
2022/10/08 16:05:59;;;;;;;6.50;2.70;;;19.80;53.50;;;;;;5005416;28;20295;-92
2022/10/08 16:08:29;;;;;;;10.07;3.10;;;19.80;53.60;;;;;;5009391;28;20200;-93
2022/10/08 16:10:58;;;;;;;6.50;2.30;;;19.80;53.50;;;;;;5006957;28;20209;-94
2022/10/08 16:20:13;;;;;;;11.80;3.27;;;19.80;53.50;;;;;;4996806;28;20232;-93
2022/10/08 16:22:42;;;;;;;19.13;5.77;;;19.70;53.60;;;;;;5006850;28;20659;-92
2022/10/08 16:25:11;;;;;;;6.17;2.40;;;19.70;53.60;;;;;;5007245;28;20229;-93
2022/10/08 16:27:58;;;;;;;8.60;2.73;;;19.70;53.70;;;;;;5008309;28;20225;-94
2022/10/08 16:30:42;;;;;;;11.50;3.93;;;19.60;53.50;;;;;;4995646;28;20573;-94
2022/10/08 16:33:11;;;;;;;8.83;2.93;;;19.60;54.00;;;;;;4995901;28;20202;-93
2022/10/08 16:39:17;;;;;;;9.23;3.17;;;19.60;53.80;;;;;;4960737;28;20607;-94
2022/10/08 16:41:47;;;;;;;10.17;2.93;;;19.50;53.70;;;;;;4996577;28;20198;-92
2022/10/08 16:44:16;;;;;;;14.87;4.60;;;19.50;53.80;;;;;;5003711;28;20232;-94
2022/10/08 16:46:47;;;;;;;9.40;3.27;;;19.50;54.10;;;;;;5021466;28;20224;-94
2022/10/08 16:50:08;;;;;;;16.43;5.07;;;19.40;54.10;;;;;;5002689;28;20205;-93
2022/10/08 16:52:36;;;;;;;15.80;4.37;;;19.40;54.10;;;;;;4958840;29;20234;-94
2022/10/08 16:55:05;;;;;;;12.03;3.67;;;19.40;54.10;;;;;;4951910;29;20208;-93
2022/10/08 16:57:33;;;;;;;13.93;4.33;;;19.40;54.20;;;;;;4956557;28;20229;-94
2022/10/08 17:00:01;;;;;;;10.90;3.30;;;19.30;54.30;;;;;;4975294;28;20207;-93
2022/10/08 17:02:32;;;;;;;12.33;3.73;;;19.30;54.40;;;;;;4987215;28;20214;-94
2022/10/08 17:05:00;;;;;;;9.50;3.53;;;19.30;54.40;;;;;;4980514;28;20275;-93
2022/10/08 17:07:41;;;;;;;11.50;3.80;;;19.30;54.50;;;;;;4991569;28;20229;-95
2022/10/08 17:10:11;;;;;;;9.80;3.70;;;19.30;54.80;;;;;;5001076;28;20213;-93
2022/10/08 17:12:39;;;;;;;15.57;4.83;;;19.20;54.60;;;;;;4994572;28;20212;-93
2022/10/08 17:15:07;;;;;;;10.33;3.23;;;19.20;54.60;;;;;;5002890;28;20209;-93
2022/10/08 17:17:36;;;;;;;9.37;3.30;;;19.20;54.90;;;;;;5004770;28;20277;-92
2022/10/08 17:23:31;;;;;;;;;;;;;;;;;;;;;
2022/10/08 17:26:03;;;;;;;8.10;2.43;;;19.00;55.10;;;;;;5018738;28;20233;-92
2022/10/08 17:29:05;;;;;;;13.60;4.27;;;19.00;55.00;;;;;;5024898;28;20204;-92
2022/10/08 17:34:20;;;;;;;8.23;2.70;;;18.90;55.30;;;;;;5344778;22;20228;-96
2022/10/08 17:36:57;;;;;;;8.17;2.90;;;18.80;55.50;;;;;;5023657;28;20188;-96
2022/10/08 17:39:49;;;;;;;8.20;3.60;;;18.80;55.40;;;;;;5036491;28;20198;-95
2022/10/08 17:42:40;;;;;;;15.40;6.90;;;18.70;55.50;;;;;;5029470;28;20212;-96
2022/10/08 17:45:32;;;;;;;65.27;45.50;;;18.60;55.80;;;;;;5014380;28;20210;-96
2022/10/08 17:48:10;;;;;;;32.40;19.67;;;18.60;55.70;;;;;;5006421;28;20329;-96
2022/10/08 17:50:39;;;;;;;25.00;14.87;;;18.50;55.80;;;;;;5002493;28;20262;-96
2022/10/08 17:53:07;;;;;;;19.77;11.73;;;18.40;55.50;;;;;;5001122;28;20213;-96
2022/10/08 17:55:35;;;;;;;17.40;10.17;;;18.40;55.70;;;;;;5000847;28;20290;-96
2022/10/08 17:58:04;;;;;;;22.43;11.80;;;18.30;55.90;;;;;;4991589;28;20210;-96
2022/10/08 18:01:05;;;;;;;21.03;11.27;;;18.20;56.10;;;;;;4987975;28;20205;-96
2022/10/08 18:03:36;;;;;;;20.53;9.33;;;18.10;56.20;;;;;;4989345;28;20233;-96
2022/10/08 18:06:05;;;;;;;21.10;9.40;;;18.10;56.40;;;;;;4996465;28;20244;-96
2022/10/08 18:08:47;;;;;;;14.10;6.97;;;17.90;56.40;;;;;;5003395;28;20606;-96
2022/10/08 18:11:17;;;;;;;15.30;7.47;;;17.90;56.80;;;;;;4997576;28;20247;-96
2022/10/08 18:13:50;;;;;;;20.63;7.77;;;17.80;56.60;;;;;;4997366;28;20629;-96
2022/10/08 18:16:24;;;;;;;12.50;6.10;;;17.70;56.70;;;;;;4998615;28;20222;-96
2022/10/08 18:18:53;;;;;;;13.23;6.57;;;17.70;57.00;;;;;;4993884;28;20204;-96
2022/10/08 18:21:23;;;;;;;12.83;6.57;;;17.60;56.80;;;;;;4996605;28;20225;-96
2022/10/08 18:24:02;;;;;;;12.17;5.50;;;17.50;57.00;;;;;;4986092;28;20209;-96
2022/10/08 18:26:33;;;;;;;11.17;5.10;;;17.50;57.10;;;;;;4983778;28;20237;-96
2022/10/08 18:29:22;;;;;;;14.23;6.03;;;17.40;57.00;;;;;;4990655;28;20210;-96
2022/10/08 18:31:52;;;;;;;13.67;6.77;;;17.30;57.30;;;;;;4997996;28;20664;-96
2022/10/08 18:34:24;;;;;;;9.47;5.30;;;17.30;57.20;;;;;;4997546;28;20306;-96
2022/10/08 18:36:54;;;;;;;12.57;5.87;;;17.20;57.30;;;;;;4996858;28;20252;-96